createdAt,value
2022-09-28T00:01:07.424Z,89.97
2022-09-28T00:03:35.937Z,90.84
2022-09-28T00:06:04.887Z,90.09
2022-09-28T00:08:32.837Z,90.62
2022-09-28T00:11:00.681Z,90.78
2022-09-28T00:13:29.480Z,90.40
2022-09-28T00:16:04.220Z,90.17
2022-09-28T00:18:32.359Z,90.55
2022-09-28T00:21:05.755Z,91.23
2022-09-28T00:23:34.344Z,91.05
2022-09-28T00:26:05.890Z,90.78
2022-09-28T00:28:33.841Z,90.75
2022-09-28T00:31:03.106Z,90.98
2022-09-28T00:33:31.057Z,91.58
2022-09-28T00:35:59.807Z,90.44
2022-09-28T00:38:29.370Z,90.80
2022-09-28T00:40:57.821Z,91.61
2022-09-28T00:43:26.388Z,90.82
2022-09-28T00:46:00.198Z,91.05
2022-09-28T00:48:33.810Z,92.00
2022-09-28T00:51:05.476Z,92.02
2022-09-28T00:53:36.492Z,92.37
2022-09-28T00:56:09.083Z,92.46
2022-09-28T00:58:42.376Z,92.56
2022-09-28T01:01:10.463Z,91.92
2022-09-28T01:03:41.281Z,92.17
2022-09-28T01:06:10.434Z,92.33
2022-09-28T01:08:39.983Z,92.17
2022-09-28T01:11:07.913Z,92.49
2022-09-28T01:13:36.078Z,92.98
2022-09-28T01:16:14.479Z,92.36
2022-09-28T01:18:53.235Z,92.57
2022-09-28T01:21:22.466Z,92.93
2022-09-28T01:24:10.298Z,92.56
2022-09-28T01:27:06.935Z,92.87
2022-09-28T01:29:44.540Z,93.14
2022-09-28T01:32:27.014Z,93.00
2022-09-28T01:35:01.012Z,92.92
2022-09-28T01:37:36.315Z,92.77
2022-09-28T01:40:07.902Z,92.85
2022-09-28T01:42:39.995Z,92.02
2022-09-28T01:45:15.525Z,91.85
2022-09-28T01:47:46.567Z,91.82
2022-09-28T01:50:18.686Z,91.80
2022-09-28T01:52:52.296Z,91.88
2022-09-28T01:55:27.520Z,91.97
2022-09-28T01:58:00.928Z,92.75
2022-09-28T02:00:29.561Z,91.83
2022-09-28T02:03:02.918Z,92.24
2022-09-28T02:05:40.814Z,91.99
2022-09-28T02:08:14.838Z,92.86
2022-09-28T02:10:47.392Z,92.35
2022-09-28T02:13:21.909Z,92.44
2022-09-28T02:15:54.887Z,92.36
2022-09-28T02:18:22.898Z,91.85
2022-09-28T02:21:07.566Z,92.40
2022-09-28T02:23:39.160Z,92.43
2022-09-28T02:26:13.076Z,91.78
2022-09-28T02:28:42.831Z,92.02
2022-09-28T02:31:10.760Z,92.09
2022-09-28T02:33:44.651Z,91.80
2022-09-28T02:36:12.684Z,91.96
2022-09-28T02:38:40.516Z,92.08
2022-09-28T02:41:18.773Z,92.49
2022-09-28T02:43:57.532Z,92.14
2022-09-28T02:46:30.888Z,92.21
2022-09-28T02:49:21.786Z,92.19
2022-09-28T02:52:09.277Z,92.60
2022-09-28T02:54:57.486Z,92.59
2022-09-28T02:57:39.169Z,91.92
2022-09-28T03:00:12.659Z,91.82
2022-09-28T03:02:50.811Z,91.69
2022-09-28T03:05:23.422Z,92.33
2022-09-28T03:08:00.357Z,91.44
2022-09-28T03:10:34.868Z,91.95
2022-09-28T03:13:04.615Z,91.33
2022-09-28T03:15:35.954Z,91.39
2022-09-28T03:18:04.045Z,91.56
2022-09-28T03:20:33.453Z,91.94
2022-09-28T03:25:51.005Z,91.67
2022-09-28T03:28:19.472Z,91.37
2022-09-28T03:30:50.563Z,92.06
2022-09-28T03:33:19.756Z,92.40
2022-09-28T03:35:48.476Z,92.30
2022-09-28T03:38:17.220Z,92.18
2022-09-28T03:40:45.776Z,92.42
2022-09-28T03:43:13.606Z,92.49
2022-09-28T03:45:42.161Z,92.81
2022-09-28T03:48:11.344Z,92.77
2022-09-28T03:50:39.138Z,92.92
2022-09-28T03:53:07.134Z,92.87
2022-09-28T03:55:34.948Z,93.02
2022-09-28T03:58:02.839Z,93.13
2022-09-28T04:00:30.964Z,92.72
2022-09-28T04:02:58.902Z,93.19
2022-09-28T04:05:28.301Z,93.62
2022-09-28T04:07:57.766Z,93.57
2022-09-28T04:10:25.856Z,91.12
2022-09-28T04:12:56.172Z,91.73
2022-09-28T04:15:24.338Z,91.54
2022-09-28T04:17:52.695Z,91.53
2022-09-28T04:20:48.154Z,92.37
2022-09-28T04:23:16.254Z,92.16
2022-09-28T04:25:48.617Z,92.03
2022-09-28T04:28:34.308Z,91.75
2022-09-28T04:31:02.174Z,92.57
2022-09-28T04:33:30.129Z,92.99
2022-09-28T04:35:59.302Z,92.55
2022-09-28T04:38:48.726Z,92.65
2022-09-28T04:41:15.423Z,91.61
2022-09-28T04:43:43.891Z,92.64
2022-09-28T04:46:12.784Z,90.97
2022-09-28T04:48:47.650Z,90.90
2022-09-28T04:51:34.516Z,90.90
2022-09-28T04:54:02.799Z,91.07
2022-09-28T04:56:30.815Z,90.49
2022-09-28T04:58:58.846Z,90.83
2022-09-28T05:01:26.918Z,90.59
2022-09-28T05:04:14.781Z,90.89
2022-09-28T05:06:58.787Z,90.59
2022-09-28T05:09:26.709Z,90.52
2022-09-28T05:11:54.483Z,90.79
2022-09-28T05:14:25.576Z,90.89
2022-09-28T05:16:53.754Z,90.39
2022-09-28T05:19:27.441Z,92.17
2022-09-28T05:22:04.464Z,90.41
2022-09-28T05:24:37.511Z,91.61
2022-09-28T05:27:05.744Z,91.90
2022-09-28T05:29:33.645Z,91.70
2022-09-28T05:32:19.850Z,91.42
2022-09-28T05:35:01.075Z,91.83
2022-09-28T05:37:42.311Z,91.18
2022-09-28T05:40:11.347Z,91.98
2022-09-28T05:42:40.524Z,91.45
2022-09-28T05:45:09.662Z,91.70
2022-09-28T05:47:39.721Z,91.13
2022-09-28T05:50:11.740Z,92.38
2022-09-28T05:52:41.809Z,91.80
2022-09-28T05:55:10.450Z,92.49
2022-09-28T05:57:38.330Z,92.27
2022-09-28T06:00:08.735Z,92.08
2022-09-28T06:02:57.121Z,92.47
2022-09-28T06:05:25.566Z,91.59
2022-09-28T06:07:56.777Z,92.11
2022-09-28T06:10:25.301Z,92.39
2022-09-28T06:12:58.399Z,92.08
2022-09-28T06:15:28.064Z,92.84
2022-09-28T06:17:58.466Z,93.10
2022-09-28T06:20:58.989Z,92.49
2022-09-28T06:23:36.018Z,93.20
2022-09-28T06:26:03.869Z,93.36
2022-09-28T06:28:31.848Z,93.51
2022-09-28T06:31:00.857Z,93.74
2022-09-28T06:33:30.207Z,93.20
2022-09-28T06:35:59.970Z,92.12
2022-09-28T06:38:27.794Z,93.00
2022-09-28T06:40:58.001Z,93.51
2022-09-28T06:43:32.112Z,93.98
2022-09-28T06:46:14.153Z,93.77
2022-09-28T06:48:51.160Z,93.61
2022-09-28T06:51:22.639Z,93.79
2022-09-28T06:54:08.142Z,92.37
2022-09-28T06:56:51.151Z,93.42
2022-09-28T06:59:20.572Z,92.92
2022-09-28T07:01:48.588Z,89.13
2022-09-28T07:04:43.867Z,90.69
2022-09-28T07:07:31.290Z,88.59
2022-09-28T07:10:23.392Z,88.29
2022-09-28T07:13:33.398Z,89.37
2022-09-28T07:16:08.020Z,89.30
2022-09-28T07:18:37.289Z,89.96
2022-09-28T07:21:08.177Z,90.10
2022-09-28T07:23:49.936Z,88.42
2022-09-28T07:26:46.736Z,89.61
2022-09-28T07:29:24.751Z,89.22
2022-09-28T07:32:18.708Z,90.06
2022-09-28T07:35:04.957Z,90.68
2022-09-28T07:37:41.239Z,90.06
2022-09-28T07:40:27.923Z,90.33
2022-09-28T07:42:56.193Z,90.46
2022-09-28T07:45:25.934Z,90.65
2022-09-28T07:47:56.493Z,89.85
2022-09-28T07:50:43.091Z,89.09
2022-09-28T07:53:26.384Z,90.26
2022-09-28T07:56:23.505Z,88.94
2022-09-28T07:59:11.565Z,89.55
2022-09-28T08:02:12.002Z,87.24
2022-09-28T08:04:40.815Z,87.67
2022-09-28T08:07:10.426Z,87.53
2022-09-28T08:09:38.376Z,88.29
2022-09-28T08:12:40.720Z,87.60
2022-09-28T08:15:37.055Z,87.76
2022-09-28T08:18:18.962Z,88.71
2022-09-28T08:21:04.690Z,85.43
2022-09-28T08:23:33.097Z,86.54
2022-09-28T08:26:01.135Z,84.47
2022-09-28T08:28:29.030Z,83.83
2022-09-28T08:31:01.750Z,83.44
2022-09-28T08:33:34.475Z,83.42
2022-09-28T08:36:24.030Z,83.17
2022-09-28T08:39:30.502Z,81.35
2022-09-28T08:42:30.866Z,81.30
2022-09-28T08:45:14.749Z,80.55
2022-09-28T08:48:24.391Z,79.79
2022-09-28T08:51:18.767Z,80.38
2022-09-28T08:54:08.088Z,80.82
2022-09-28T08:56:52.901Z,81.24
2022-09-28T08:59:24.634Z,81.56
2022-09-28T09:02:04.340Z,81.89
2022-09-28T09:04:34.876Z,81.71
2022-09-28T09:07:48.321Z,81.69
2022-09-28T09:10:36.279Z,81.31
2022-09-28T09:13:12.441Z,81.29
2022-09-28T09:15:50.388Z,81.26
2022-09-28T09:18:44.001Z,82.19
2022-09-28T09:21:42.182Z,81.77
2022-09-28T09:24:27.041Z,81.89
2022-09-28T09:27:06.529Z,82.40
2022-09-28T09:29:54.334Z,82.88
2022-09-28T09:32:35.542Z,82.29
2022-09-28T09:35:30.908Z,82.02
2022-09-28T09:38:30.831Z,82.13
2022-09-28T09:41:37.001Z,80.82
2022-09-28T09:44:46.379Z,80.85
2022-09-28T09:47:42.956Z,80.90
2022-09-28T09:50:41.381Z,78.93
2022-09-28T09:53:18.901Z,79.67
2022-09-28T09:55:50.363Z,79.16
2022-09-28T09:58:50.849Z,79.63
2022-09-28T10:01:42.802Z,79.69
2022-09-28T10:04:25.947Z,80.28
2022-09-28T10:07:00.139Z,78.69
2022-09-28T10:09:33.737Z,79.30
2022-09-28T10:12:22.387Z,80.19
2022-09-28T10:14:52.401Z,77.48
2022-09-28T10:17:26.793Z,77.52
2022-09-28T10:20:14.651Z,76.18
2022-09-28T10:22:58.351Z,76.86
2022-09-28T10:25:27.608Z,75.66
2022-09-28T10:27:56.207Z,75.46
2022-09-28T10:30:26.535Z,75.97
2022-09-28T10:32:59.401Z,73.17
2022-09-28T10:35:42.911Z,72.39
2022-09-28T10:38:17.443Z,73.23
2022-09-28T10:40:47.540Z,73.30
2022-09-28T10:43:24.968Z,73.17
2022-09-28T10:46:10.201Z,71.76
2022-09-28T10:48:51.588Z,71.67
2022-09-28T10:51:21.413Z,72.05
2022-09-28T10:54:01.495Z,72.26
2022-09-28T10:56:46.672Z,71.69
2022-09-28T10:59:38.756Z,71.47
2022-09-28T11:02:26.764Z,72.01
2022-09-28T11:05:02.647Z,72.53
2022-09-28T11:07:47.293Z,71.45
2022-09-28T11:10:22.543Z,71.57
2022-09-28T11:12:52.769Z,71.45
2022-09-28T11:15:25.757Z,70.48
2022-09-28T11:17:55.694Z,70.90
2022-09-28T11:20:34.505Z,72.45
2022-09-28T11:23:20.431Z,69.75
2022-09-28T11:26:03.443Z,69.34
2022-09-28T11:28:34.406Z,68.00
2022-09-28T11:31:08.907Z,66.89
2022-09-28T11:33:48.972Z,66.70
2022-09-28T11:37:08.040Z,66.43
2022-09-28T11:39:44.951Z,68.22
2022-09-28T11:42:28.416Z,67.41
2022-09-28T11:45:05.331Z,66.63
2022-09-28T11:47:44.119Z,67.02
2022-09-28T11:50:25.238Z,67.07
2022-09-28T11:53:01.688Z,67.35
2022-09-28T11:55:35.994Z,66.44
2022-09-28T11:58:09.682Z,65.46
2022-09-28T12:00:44.697Z,66.44
2022-09-28T12:03:17.925Z,67.77
2022-09-28T12:05:52.593Z,66.80
2022-09-28T12:08:25.488Z,65.84
2022-09-28T12:11:18.737Z,65.82
2022-09-28T12:14:11.523Z,65.59
2022-09-28T12:17:05.817Z,65.35
2022-09-28T12:19:41.005Z,64.11
2022-09-28T12:22:19.260Z,65.04
2022-09-28T12:24:50.463Z,65.69
2022-09-28T12:27:24.472Z,64.69
2022-09-28T12:29:59.782Z,66.52
2022-09-28T12:32:32.443Z,66.00
2022-09-28T12:35:00.346Z,65.53
2022-09-28T12:37:40.571Z,67.27
2022-09-28T12:40:28.087Z,66.11
2022-09-28T12:43:12.188Z,65.00
2022-09-28T12:46:13.199Z,65.57
2022-09-28T12:49:36.617Z,63.19
2022-09-28T12:51:50.092Z,62.91
2022-09-28T12:54:34.439Z,62.40
2022-09-28T12:57:16.633Z,61.99
2022-09-28T13:00:01.756Z,62.60
2022-09-28T13:03:15.888Z,63.92
2022-09-28T13:06:21.054Z,62.93
2022-09-28T13:09:04.744Z,63.80
2022-09-28T13:11:42.639Z,63.19
2022-09-28T13:14:37.034Z,61.05
2022-09-28T13:17:17.043Z,61.18
2022-09-28T13:19:52.395Z,61.26
2022-09-28T13:22:31.739Z,60.39
2022-09-28T13:25:05.718Z,60.89
2022-09-28T13:27:39.711Z,61.16
2022-09-28T13:30:08.892Z,61.39
2022-09-28T13:32:38.939Z,62.64
2022-09-28T13:35:07.455Z,61.61
2022-09-28T13:37:35.459Z,59.89
2022-09-28T13:40:06.125Z,60.53
2022-09-28T13:43:10.570Z,58.96
2022-09-28T13:45:54.671Z,58.81
2022-09-28T13:48:25.613Z,58.12
2022-09-28T13:51:06.915Z,58.37
2022-09-28T13:53:51.038Z,59.34
2022-09-28T13:56:29.306Z,58.73
2022-09-28T13:59:03.322Z,58.43
2022-09-28T14:01:37.159Z,59.32
2022-09-28T14:04:17.502Z,58.71
2022-09-28T14:06:52.409Z,58.34
2022-09-28T14:09:41.428Z,59.75
2022-09-28T14:12:30.137Z,59.38
2022-09-28T14:14:59.987Z,59.10
2022-09-28T14:17:59.185Z,57.88
2022-09-28T14:20:30.262Z,58.85
2022-09-28T14:23:24.183Z,58.62
2022-09-28T14:26:15.831Z,59.73
2022-09-28T14:28:55.534Z,60.16
2022-09-28T14:31:28.048Z,57.54
2022-09-28T14:33:58.638Z,58.32
2022-09-28T14:36:47.357Z,58.57
2022-09-28T14:39:44.312Z,57.93
2022-09-28T14:42:16.578Z,58.38
2022-09-28T14:45:33.723Z,58.64
2022-09-28T14:48:21.368Z,59.34
2022-09-28T14:50:50.001Z,59.74
2022-09-28T14:53:21.772Z,58.66
2022-09-28T14:55:51.883Z,59.46
2022-09-28T14:58:23.451Z,59.50
2022-09-28T15:00:59.285Z,58.88
2022-09-28T15:03:32.684Z,58.41
2022-09-28T15:06:01.494Z,59.39
2022-09-28T15:08:47.326Z,59.23
2022-09-28T15:11:19.263Z,58.74
2022-09-28T15:13:47.130Z,59.00
2022-09-28T15:16:17.789Z,59.97
2022-09-28T15:19:20.509Z,60.89
2022-09-28T15:21:50.050Z,60.84
2022-09-28T15:24:35.250Z,59.95
2022-09-28T15:27:04.824Z,60.60
2022-09-28T15:29:33.441Z,59.94
2022-09-28T15:32:01.445Z,60.64
2022-09-28T15:34:52.438Z,60.22
2022-09-28T15:37:23.847Z,60.63
2022-09-28T15:39:53.308Z,60.70
2022-09-28T15:42:22.462Z,60.90
2022-09-28T15:45:24.831Z,60.86
2022-09-28T15:47:57.560Z,61.82
2022-09-28T15:50:30.404Z,61.02
2022-09-28T15:53:00.785Z,61.75
2022-09-28T15:55:31.619Z,60.41
2022-09-28T15:58:08.778Z,60.60
2022-09-28T16:00:36.869Z,60.96
2022-09-28T16:03:21.532Z,60.98
2022-09-28T16:05:53.385Z,61.49
2022-09-28T16:08:24.742Z,62.83
2022-09-28T16:11:01.456Z,62.90
2022-09-28T16:13:29.382Z,62.77
2022-09-28T16:15:59.705Z,63.50
2022-09-28T16:18:29.294Z,63.34
2022-09-28T16:21:28.281Z,62.02
2022-09-28T16:23:57.517Z,62.62
2022-09-28T16:26:32.095Z,64.37
2022-09-28T16:29:00.706Z,63.09
2022-09-28T16:31:34.357Z,63.18
2022-09-28T16:34:11.818Z,63.66
2022-09-28T16:36:45.427Z,64.00
2022-09-28T16:39:14.215Z,63.67
2022-09-28T16:41:44.615Z,64.12
2022-09-28T16:44:17.820Z,64.68
2022-09-28T16:46:46.578Z,65.31
2022-09-28T16:49:18.694Z,65.71
2022-09-28T16:51:48.830Z,66.79
2022-09-28T16:54:36.994Z,67.20
2022-09-28T16:57:06.726Z,67.84
2022-09-28T16:59:34.835Z,68.09
2022-09-28T17:02:02.606Z,69.95
2022-09-28T17:04:30.354Z,69.67
2022-09-28T17:06:59.566Z,70.28
2022-09-28T17:09:27.314Z,70.97
2022-09-28T17:11:56.660Z,71.41
2022-09-28T17:14:25.173Z,71.99
2022-09-28T17:17:13.707Z,72.60
2022-09-28T17:19:42.784Z,73.10
2022-09-28T17:22:12.149Z,72.97
2022-09-28T17:24:39.924Z,74.43
2022-09-28T17:27:07.907Z,74.08
2022-09-28T17:29:35.784Z,73.97
2022-09-28T17:32:04.979Z,75.55
2022-09-28T17:34:32.750Z,74.90
2022-09-28T17:37:00.569Z,75.51
2022-09-28T17:39:31.610Z,75.57
2022-09-28T17:41:59.387Z,76.18
2022-09-28T17:44:27.146Z,76.36
2022-09-28T17:46:55.013Z,77.60
2022-09-28T17:49:22.828Z,76.79
2022-09-28T17:51:52.813Z,76.99
2022-09-28T17:54:22.473Z,77.63
2022-09-28T17:56:51.794Z,77.88
2022-09-28T17:59:19.879Z,78.03
2022-09-28T18:01:48.301Z,78.86
2022-09-28T18:04:33.750Z,79.13
2022-09-28T18:07:05.407Z,79.35
2022-09-28T18:09:33.228Z,79.51
2022-09-28T18:12:05.903Z,79.29
2022-09-28T18:14:33.809Z,79.85
2022-09-28T18:17:01.641Z,79.96
2022-09-28T18:19:32.175Z,80.20
2022-09-28T18:22:01.314Z,80.88
2022-09-28T18:24:29.290Z,80.88
2022-09-28T18:26:57.085Z,80.96
2022-09-28T18:29:29.899Z,81.57
2022-09-28T18:32:00.154Z,81.24
2022-09-28T18:34:27.955Z,81.94
2022-09-28T18:36:55.836Z,82.03
2022-09-28T18:39:24.245Z,81.80
2022-09-28T18:41:52.054Z,82.55
2022-09-28T18:44:19.889Z,82.72
2022-09-28T18:46:49.109Z,82.57
2022-09-28T18:49:16.971Z,83.08
2022-09-28T18:51:44.779Z,82.16
2022-09-28T18:54:12.667Z,82.82
2022-09-28T18:56:40.568Z,83.14
2022-09-28T18:59:13.403Z,83.25
2022-09-28T19:01:42.679Z,83.85
2022-09-28T19:04:13.517Z,84.03
2022-09-28T19:06:44.389Z,83.68
2022-09-28T19:09:13.117Z,83.71
2022-09-28T19:11:41.026Z,83.93
2022-09-28T19:14:11.034Z,84.08
2022-09-28T19:16:38.883Z,84.47
2022-09-28T19:19:06.690Z,84.17
2022-09-28T19:21:35.900Z,84.36
2022-09-28T19:24:04.499Z,84.65
2022-09-28T19:26:33.036Z,84.07
2022-09-28T19:29:02.088Z,84.73
2022-09-28T19:31:30.986Z,84.42
2022-09-28T19:33:59.191Z,85.02
2022-09-28T19:36:29.338Z,84.35
2022-09-28T19:39:02.887Z,84.63
2022-09-28T19:41:51.018Z,84.81
2022-09-28T19:44:24.507Z,84.74
2022-09-28T19:46:54.680Z,85.35
2022-09-28T19:49:23.523Z,85.02
2022-09-28T19:52:12.242Z,84.69
2022-09-28T19:54:44.708Z,84.86
2022-09-28T19:57:13.211Z,84.40
2022-09-28T19:59:41.070Z,84.63
2022-09-28T20:02:11.306Z,84.39
2022-09-28T20:04:39.150Z,84.40
2022-09-28T20:07:06.951Z,83.96
2022-09-28T20:09:34.719Z,85.38
2022-09-28T20:12:04.066Z,85.40
2022-09-28T20:14:36.539Z,84.64
2022-09-28T20:17:07.352Z,84.71
2022-09-28T20:19:35.300Z,85.54
2022-09-28T20:22:03.513Z,86.05
2022-09-28T20:24:32.063Z,85.59
2022-09-28T20:27:01.127Z,84.91
2022-09-28T20:29:31.534Z,85.58
2022-09-28T20:32:00.330Z,85.26
2022-09-28T20:34:28.645Z,85.94
2022-09-28T20:36:56.499Z,85.89
2022-09-28T20:39:24.370Z,85.26
2022-09-28T20:41:52.138Z,85.05
2022-09-28T20:44:20.098Z,85.32
2022-09-28T20:46:52.340Z,85.01
2022-09-28T20:49:20.350Z,85.03
2022-09-28T20:51:48.166Z,85.78
2022-09-28T20:54:15.940Z,85.49
2022-09-28T20:56:43.744Z,85.71
2022-09-28T20:59:12.844Z,85.32
2022-09-28T21:01:41.587Z,86.28
2022-09-28T21:04:11.623Z,85.73
2022-09-28T21:06:41.637Z,86.19
2022-09-28T21:09:11.148Z,85.72
2022-09-28T21:11:39.498Z,85.25
2022-09-28T21:14:10.162Z,84.81
2022-09-28T21:16:38.375Z,84.34
2022-09-28T21:19:06.122Z,84.57
2022-09-28T21:21:35.211Z,84.53
2022-09-28T21:24:03.212Z,83.70
2022-09-28T21:26:31.843Z,84.47
2022-09-28T21:29:01.531Z,83.86
2022-09-28T21:31:32.415Z,83.41
2022-09-28T21:34:00.607Z,83.34
2022-09-28T21:36:28.433Z,83.22
2022-09-28T21:38:57.676Z,83.21
2022-09-28T21:41:26.285Z,84.05
2022-09-28T21:43:54.264Z,83.39
2022-09-28T21:46:22.157Z,83.22
2022-09-28T21:48:53.403Z,83.59
2022-09-28T21:51:21.319Z,84.34
2022-09-28T21:53:49.674Z,83.92
2022-09-28T21:56:18.918Z,83.23
2022-09-28T21:58:47.194Z,83.24
2022-09-28T22:01:18.272Z,83.96
2022-09-28T22:03:47.870Z,83.57
2022-09-28T22:06:17.044Z,83.19
2022-09-28T22:08:45.949Z,83.85
2022-09-28T22:11:16.544Z,83.99
2022-09-28T22:13:47.114Z,83.64
2022-09-28T22:16:16.434Z,83.52
2022-09-28T22:18:45.155Z,83.79
2022-09-28T22:21:15.201Z,84.55
2022-09-28T22:23:43.193Z,84.53
2022-09-28T22:26:13.805Z,83.93
2022-09-28T22:28:48.280Z,83.35
2022-09-28T22:31:17.470Z,83.48
2022-09-28T22:33:45.294Z,83.56
2022-09-28T22:36:17.012Z,84.28
2022-09-28T22:38:45.347Z,84.28
2022-09-28T22:41:14.518Z,83.30
2022-09-28T22:43:42.837Z,83.30
2022-09-28T22:46:13.946Z,84.20
2022-09-28T22:48:43.259Z,84.14
2022-09-28T22:51:11.052Z,83.75
2022-09-28T22:53:38.850Z,83.71
2022-09-28T22:56:07.660Z,83.63
2022-09-28T22:58:37.158Z,84.19
2022-09-28T23:01:09.182Z,84.24
2022-09-28T23:03:40.090Z,84.49
2022-09-28T23:06:09.068Z,84.53
2022-09-28T23:08:37.193Z,84.11
2022-09-28T23:11:05.276Z,84.07
2022-09-28T23:13:33.194Z,84.99
2022-09-28T23:16:03.448Z,84.44
2022-09-28T23:18:33.944Z,84.96
2022-09-28T23:21:06.030Z,85.05
2022-09-28T23:23:34.731Z,84.97
2022-09-28T23:26:13.693Z,85.30
2022-09-28T23:28:41.950Z,84.56
2022-09-28T23:31:11.543Z,85.02
2022-09-28T23:33:39.656Z,84.79
2022-09-28T23:36:10.172Z,85.11
2022-09-28T23:38:38.458Z,85.20
2022-09-28T23:41:06.749Z,84.80
2022-09-28T23:43:36.154Z,84.65
2022-09-28T23:46:05.416Z,85.11
2022-09-28T23:48:34.164Z,84.46
2022-09-28T23:51:02.564Z,84.88
2022-09-28T23:53:33.209Z,84.94
2022-09-28T23:56:01.775Z,85.48
2022-09-28T23:58:30.041Z,85.18
